createdAt,value
2023-04-19T00:02:25.681Z,35.45
2023-04-19T00:04:57.896Z,33.58
2023-04-19T00:07:29.800Z,34.30
2023-04-19T00:10:01.575Z,33.38
2023-04-19T00:12:33.328Z,31.85
2023-04-19T00:15:06.323Z,33.90
2023-04-19T00:17:38.204Z,32.95
2023-04-19T00:20:11.606Z,30.02
2023-04-19T00:22:43.329Z,30.58
2023-04-19T00:25:15.130Z,26.52
2023-04-19T00:27:47.143Z,29.08
2023-04-19T00:30:18.866Z,33.72
2023-04-19T00:32:50.716Z,33.55
2023-04-19T00:35:22.531Z,27.90
2023-04-19T00:37:54.343Z,30.40
2023-04-19T00:40:26.156Z,33.38
2023-04-19T00:42:58.015Z,30.00
2023-04-19T00:45:29.785Z,31.85
2023-04-19T00:48:02.287Z,30.40
2023-04-19T00:50:36.073Z,30.10
2023-04-19T00:53:08.098Z,32.90
2023-04-19T00:55:39.919Z,29.67
2023-04-19T00:58:11.705Z,29.48
2023-04-19T01:00:44.332Z,28.73
2023-04-19T01:03:17.731Z,31.23
2023-04-19T01:05:50.985Z,30.92
2023-04-19T01:08:23.329Z,31.67
2023-04-19T01:10:58.859Z,30.60
2023-04-19T01:13:30.614Z,28.77
2023-04-19T01:16:02.446Z,29.33
2023-04-19T01:18:37.545Z,32.67
2023-04-19T01:21:10.101Z,31.33
2023-04-19T01:23:42.053Z,29.23
2023-04-19T01:26:13.996Z,32.58
2023-04-19T01:28:45.792Z,29.42
2023-04-19T01:31:17.522Z,29.50
2023-04-19T01:33:49.223Z,28.73
2023-04-19T01:36:20.928Z,27.35
2023-04-19T01:38:52.686Z,28.25
2023-04-19T01:41:27.134Z,29.90
2023-04-19T01:46:30.686Z,25.98
2023-04-19T01:49:02.521Z,27.23
2023-04-19T01:51:34.303Z,29.65
2023-04-19T01:54:06.360Z,28.25
2023-04-19T01:56:38.086Z,25.60
2023-04-19T01:59:09.766Z,27.17
2023-04-19T02:01:41.532Z,31.00
2023-04-19T02:04:13.513Z,25.88
2023-04-19T02:06:45.460Z,26.98
2023-04-19T02:09:17.238Z,26.52
2023-04-19T02:11:51.081Z,25.73
2023-04-19T02:14:22.749Z,25.98
2023-04-19T02:16:54.683Z,30.65
2023-04-19T02:19:26.520Z,28.17
2023-04-19T02:21:58.313Z,25.60
2023-04-19T02:24:30.086Z,28.13
2023-04-19T02:27:04.991Z,28.05
2023-04-19T02:29:39.509Z,29.02
2023-04-19T02:32:14.693Z,28.23
2023-04-19T02:34:46.407Z,28.52
2023-04-19T02:37:18.529Z,30.60
2023-04-19T02:39:51.276Z,30.75
2023-04-19T02:42:22.988Z,32.30
2023-04-19T02:44:54.776Z,30.90
2023-04-19T02:47:29.307Z,30.55
2023-04-19T02:50:01.645Z,31.33
2023-04-19T02:52:35.452Z,31.50
2023-04-19T02:55:07.772Z,32.40
2023-04-19T02:57:39.800Z,29.50
2023-04-19T03:00:14.182Z,33.05
2023-04-19T03:02:54.179Z,30.15
2023-04-19T03:05:26.076Z,29.73
2023-04-19T03:07:57.774Z,28.80
2023-04-19T03:10:29.729Z,32.88
2023-04-19T03:13:01.464Z,29.20
2023-04-19T03:15:34.478Z,31.05
2023-04-19T03:18:06.415Z,29.88
2023-04-19T03:20:39.436Z,31.65
2023-04-19T03:23:11.201Z,32.85
2023-04-19T03:25:43.609Z,33.65
2023-04-19T03:28:31.107Z,29.98
2023-04-19T03:31:35.407Z,30.02
2023-04-19T03:34:08.425Z,31.45
2023-04-19T03:36:46.477Z,32.55
2023-04-19T03:39:18.317Z,34.25
2023-04-19T03:44:32.263Z,30.38
2023-04-19T03:47:04.017Z,32.30
2023-04-19T03:49:41.458Z,30.63
2023-04-19T03:52:13.165Z,32.15
2023-04-19T03:54:45.226Z,29.33
2023-04-19T04:00:08.277Z,30.23
2023-04-19T04:02:45.787Z,30.83
2023-04-19T04:05:18.580Z,30.58
2023-04-19T04:07:50.583Z,32.08
2023-04-19T04:10:23.488Z,29.77
2023-04-19T04:12:56.047Z,31.33
2023-04-19T04:15:33.866Z,30.42
2023-04-19T04:18:08.413Z,33.42
2023-04-19T04:20:41.432Z,30.80
2023-04-19T04:26:02.574Z,29.83
2023-04-19T04:28:52.256Z,29.55
2023-04-19T04:31:24.494Z,32.40
2023-04-19T04:33:56.570Z,29.17
2023-04-19T04:36:29.830Z,28.80
2023-04-19T04:39:02.174Z,29.08
2023-04-19T04:41:36.069Z,26.45
2023-04-19T04:44:13.072Z,25.37
2023-04-19T04:46:46.733Z,28.77
2023-04-19T04:49:23.623Z,28.60
2023-04-19T04:51:55.955Z,25.15
2023-04-19T04:54:27.938Z,27.02
2023-04-19T04:57:02.988Z,24.40
2023-04-19T04:59:35.977Z,25.60
2023-04-19T05:02:08.726Z,25.92
2023-04-19T05:04:40.959Z,25.73
2023-04-19T05:07:12.741Z,24.75
2023-04-19T05:09:44.496Z,25.05
2023-04-19T05:12:19.143Z,22.95
2023-04-19T05:14:51.042Z,23.40
2023-04-19T05:17:23.015Z,22.42
2023-04-19T05:19:54.850Z,23.15
2023-04-19T05:22:27.501Z,23.67
2023-04-19T05:24:59.354Z,26.67
2023-04-19T05:27:31.677Z,23.60
2023-04-19T05:30:05.126Z,24.38
2023-04-19T05:32:37.456Z,22.47
2023-04-19T05:35:11.412Z,24.05
2023-04-19T05:37:43.429Z,24.95
2023-04-19T05:40:15.349Z,23.95
2023-04-19T05:42:47.027Z,27.10
2023-04-19T05:45:19.074Z,27.17
2023-04-19T05:47:50.976Z,24.63
2023-04-19T05:50:28.684Z,22.58
2023-04-19T05:53:20.652Z,23.23
2023-04-19T05:55:52.694Z,22.50
2023-04-19T05:58:24.518Z,20.73
2023-04-19T06:00:56.447Z,19.88
2023-04-19T06:03:31.212Z,21.15
2023-04-19T06:06:05.440Z,22.05
2023-04-19T06:08:37.311Z,21.40
2023-04-19T06:11:20.199Z,20.95
2023-04-19T06:13:56.532Z,20.52
2023-04-19T06:16:28.750Z,20.85
2023-04-19T06:19:01.074Z,20.08
2023-04-19T06:21:33.023Z,20.33
2023-04-19T06:24:06.946Z,21.80
2023-04-19T06:26:38.750Z,21.45
2023-04-19T06:29:10.614Z,22.05
2023-04-19T06:31:43.102Z,24.45
2023-04-19T06:34:15.244Z,23.30
2023-04-19T06:36:47.443Z,21.73
2023-04-19T06:39:19.215Z,20.38
2023-04-19T06:41:51.062Z,23.83
2023-04-19T06:44:22.776Z,19.40
2023-04-19T06:46:54.477Z,20.55
2023-04-19T06:49:26.350Z,23.92
2023-04-19T06:51:59.571Z,18.23
2023-04-19T06:54:31.338Z,19.10
2023-04-19T06:57:03.588Z,21.00
2023-04-19T06:59:38.723Z,18.75
2023-04-19T07:02:10.750Z,18.70
2023-04-19T07:04:42.703Z,18.67
2023-04-19T07:07:14.551Z,18.40
2023-04-19T07:09:46.599Z,17.48
2023-04-19T07:12:18.576Z,17.88
2023-04-19T07:14:56.275Z,16.48
2023-04-19T07:17:28.021Z,16.60
2023-04-19T07:19:59.726Z,17.33
2023-04-19T07:22:31.437Z,16.13
2023-04-19T07:25:03.761Z,13.45
2023-04-19T07:27:35.453Z,15.40
2023-04-19T07:30:07.779Z,20.80
2023-04-19T07:32:39.591Z,15.70
2023-04-19T07:35:11.356Z,16.67
2023-04-19T07:37:43.026Z,15.43
2023-04-19T07:40:17.259Z,16.42
2023-04-19T07:42:49.273Z,17.67
2023-04-19T07:45:20.962Z,15.40
2023-04-19T07:47:52.737Z,19.83
2023-04-19T07:50:27.718Z,18.13
2023-04-19T07:52:59.549Z,17.95
2023-04-19T07:55:31.401Z,13.00
2023-04-19T07:58:03.293Z,14.70
2023-04-19T08:00:36.785Z,11.95
2023-04-19T08:03:08.770Z,15.25
2023-04-19T08:05:40.907Z,13.00
2023-04-19T08:08:12.720Z,11.88
2023-04-19T08:10:44.472Z,15.02
2023-04-19T08:13:17.320Z,12.73
2023-04-19T08:18:24.369Z,11.57
2023-04-19T08:20:56.757Z,12.00
2023-04-19T08:23:34.950Z,11.75
2023-04-19T08:26:16.955Z,14.25
2023-04-19T08:28:49.863Z,14.70
2023-04-19T08:31:21.753Z,10.35
2023-04-19T08:33:53.481Z,13.68
2023-04-19T08:36:36.041Z,11.10
2023-04-19T08:39:15.085Z,9.55
2023-04-19T08:41:59.038Z,13.30
2023-04-19T08:44:56.227Z,10.88
2023-04-19T08:47:44.748Z,9.13
2023-04-19T08:50:32.440Z,8.90
2023-04-19T08:53:24.172Z,6.88
2023-04-19T08:58:54.790Z,7.15
2023-04-19T09:01:34.991Z,9.45
2023-04-19T09:06:43.671Z,9.52
2023-04-19T09:11:53.299Z,9.43
2023-04-19T09:14:27.104Z,7.03
2023-04-19T09:17:27.909Z,5.32
2023-04-19T09:19:59.980Z,4.82
2023-04-19T09:22:32.817Z,4.28
2023-04-19T09:27:41.069Z,4.95
2023-04-19T09:30:24.036Z,4.60
2023-04-19T09:33:02.352Z,7.05
2023-04-19T09:35:47.453Z,3.97
2023-04-19T09:40:50.944Z,6.25
2023-04-19T09:43:49.733Z,5.93
2023-04-19T09:46:34.039Z,4.00
2023-04-19T09:49:27.785Z,5.43
2023-04-19T09:52:13.642Z,4.55
2023-04-19T09:54:46.182Z,3.40
2023-04-19T09:57:20.587Z,4.47
2023-04-19T09:59:52.348Z,3.38
2023-04-19T10:02:25.138Z,3.63
2023-04-19T10:05:16.337Z,4.50
2023-04-19T10:07:50.626Z,6.00
2023-04-19T10:10:33.028Z,4.90
2023-04-19T10:15:54.151Z,5.78
2023-04-19T10:18:32.348Z,5.05
2023-04-19T10:21:08.410Z,7.32
2023-04-19T10:23:40.537Z,3.70
2023-04-19T10:26:12.259Z,3.95
2023-04-19T10:28:43.963Z,3.90
2023-04-19T10:31:16.145Z,6.85
2023-04-19T10:33:48.298Z,3.70
2023-04-19T10:36:21.882Z,5.55
2023-04-19T10:38:55.449Z,6.35
2023-04-19T10:41:57.669Z,3.90
2023-04-19T10:44:29.413Z,7.07
2023-04-19T10:47:01.258Z,6.47
2023-04-19T10:49:45.421Z,5.10
2023-04-19T10:52:29.489Z,6.13
2023-04-19T10:55:04.535Z,8.63
2023-04-19T10:58:05.467Z,5.13
2023-04-19T11:00:38.508Z,4.68
2023-04-19T11:03:45.597Z,6.35
2023-04-19T11:06:20.184Z,4.90
2023-04-19T11:08:52.966Z,4.35
2023-04-19T11:11:27.831Z,4.05
2023-04-19T11:14:04.272Z,7.28
2023-04-19T11:16:45.585Z,5.68
2023-04-19T11:19:21.161Z,4.53
2023-04-19T11:21:52.918Z,5.13
2023-04-19T11:24:24.587Z,5.18
2023-04-19T11:26:57.682Z,4.05
2023-04-19T11:29:29.400Z,5.97
2023-04-19T11:32:01.091Z,4.03
2023-04-19T11:34:37.838Z,4.32
2023-04-19T11:37:11.631Z,4.35
2023-04-19T11:39:47.573Z,5.63
2023-04-19T11:42:20.636Z,6.97
2023-04-19T11:44:52.647Z,5.55
2023-04-19T11:47:24.754Z,5.18
2023-04-19T11:49:56.645Z,3.70
2023-04-19T11:52:28.370Z,6.32
2023-04-19T11:55:18.471Z,5.70
2023-04-19T11:57:50.346Z,3.90
2023-04-19T12:00:29.112Z,4.15
2023-04-19T12:03:01.917Z,4.32
2023-04-19T12:05:35.202Z,4.93
2023-04-19T12:08:11.022Z,7.72
2023-04-19T12:10:57.267Z,5.13
2023-04-19T12:13:32.716Z,6.15
2023-04-19T12:16:04.764Z,4.20
2023-04-19T12:19:17.422Z,4.10
2023-04-19T12:21:49.538Z,3.58
2023-04-19T12:24:21.312Z,3.60
2023-04-19T12:26:57.466Z,2.88
2023-04-19T12:29:29.725Z,5.13
2023-04-19T12:32:01.825Z,2.03
2023-04-19T12:34:33.742Z,3.97
2023-04-19T12:37:05.603Z,5.55
2023-04-19T12:39:37.379Z,2.85
2023-04-19T12:42:09.094Z,5.35
2023-04-19T12:44:40.862Z,5.35
2023-04-19T12:47:12.684Z,7.32
2023-04-19T12:49:44.420Z,6.95
2023-04-19T12:52:16.332Z,5.22
2023-04-19T12:54:48.088Z,4.65
2023-04-19T12:57:19.885Z,5.13
2023-04-19T12:59:51.584Z,3.45
2023-04-19T13:02:23.739Z,6.40
2023-04-19T13:04:55.865Z,4.75
2023-04-19T13:07:28.600Z,4.50
2023-04-19T13:10:00.448Z,5.72
2023-04-19T13:12:32.301Z,7.47
2023-04-19T13:15:05.074Z,5.75
2023-04-19T13:17:37.986Z,4.57
2023-04-19T13:20:12.304Z,5.28
2023-04-19T13:22:44.068Z,4.78
2023-04-19T13:25:15.953Z,3.42
2023-04-19T13:27:47.804Z,4.47
2023-04-19T13:30:19.712Z,4.95
2023-04-19T13:32:51.628Z,4.95
2023-04-19T13:35:26.511Z,6.72
2023-04-19T13:37:58.276Z,9.98
2023-04-19T13:40:30.065Z,5.38
2023-04-19T13:43:01.762Z,6.55
2023-04-19T13:45:33.563Z,4.05
2023-04-19T13:48:05.910Z,5.55
2023-04-19T13:50:37.730Z,4.10
2023-04-19T13:53:09.445Z,4.30
2023-04-19T13:55:41.384Z,7.47
2023-04-19T13:58:16.612Z,4.30
2023-04-19T14:00:48.573Z,5.53
2023-04-19T14:03:22.331Z,9.85
2023-04-19T14:05:54.166Z,6.60
2023-04-19T14:08:26.280Z,5.47
2023-04-19T14:10:58.170Z,6.55
2023-04-19T14:13:29.970Z,6.10
2023-04-19T14:16:01.711Z,3.80
2023-04-19T14:18:33.493Z,5.97
2023-04-19T14:21:05.303Z,5.00
2023-04-19T14:23:37.099Z,5.47
2023-04-19T14:26:08.863Z,5.93
2023-04-19T14:28:40.560Z,4.72
2023-04-19T14:31:12.300Z,5.03
2023-04-19T14:33:44.071Z,9.25
2023-04-19T14:36:15.944Z,5.25
2023-04-19T14:38:47.642Z,4.40
2023-04-19T14:41:19.386Z,3.97
2023-04-19T14:43:51.952Z,4.18
2023-04-19T14:46:23.947Z,5.93
2023-04-19T14:48:57.189Z,5.28
2023-04-19T14:51:29.859Z,5.30
2023-04-19T14:54:01.724Z,5.10
2023-04-19T14:56:33.421Z,6.07
2023-04-19T14:59:08.116Z,5.82
2023-04-19T15:04:11.818Z,6.53
2023-04-19T15:06:44.057Z,5.00
2023-04-19T15:09:16.391Z,4.43
2023-04-19T15:11:48.316Z,5.57
2023-04-19T15:14:20.126Z,6.72
2023-04-19T15:16:51.874Z,7.78
2023-04-19T15:19:23.664Z,4.63
2023-04-19T15:21:55.468Z,4.90
2023-04-19T15:24:27.322Z,5.60
2023-04-19T15:26:59.114Z,7.15
2023-04-19T15:29:30.892Z,4.40
2023-04-19T15:32:03.044Z,5.70
2023-04-19T15:34:34.929Z,7.65
2023-04-19T15:37:08.209Z,6.38
2023-04-19T15:39:40.064Z,6.28
2023-04-19T15:42:12.103Z,6.95
2023-04-19T15:44:44.337Z,5.93
2023-04-19T15:47:16.292Z,4.45
2023-04-19T15:49:48.088Z,6.45
2023-04-19T15:52:20.381Z,5.20
2023-04-19T15:54:52.168Z,4.85
2023-04-19T15:57:23.981Z,5.20
2023-04-19T15:59:55.713Z,4.65
2023-04-19T16:02:27.795Z,7.68
2023-04-19T16:04:59.715Z,8.60
2023-04-19T16:07:31.761Z,4.60
2023-04-19T16:10:03.574Z,6.43
2023-04-19T16:12:35.436Z,6.40
2023-04-19T16:15:07.586Z,8.02
2023-04-19T16:17:39.317Z,5.45
2023-04-19T16:20:11.398Z,6.60
2023-04-19T16:22:46.059Z,5.88
2023-04-19T16:27:49.680Z,6.78
2023-04-19T16:30:23.508Z,5.63
2023-04-19T16:32:56.457Z,6.18
2023-04-19T16:35:28.310Z,5.68
2023-04-19T16:38:04.339Z,6.82
2023-04-19T16:40:36.173Z,5.00
2023-04-19T16:43:08.024Z,5.50
2023-04-19T16:45:40.054Z,4.60
2023-04-19T16:48:12.560Z,7.97
2023-04-19T16:50:44.547Z,6.70
2023-04-19T16:53:16.290Z,6.90
2023-04-19T16:55:48.098Z,9.02
2023-04-19T16:58:19.925Z,8.13
2023-04-19T17:00:52.238Z,7.40
2023-04-19T17:03:24.265Z,5.63
2023-04-19T17:06:01.363Z,6.07
2023-04-19T17:08:33.336Z,6.70
2023-04-19T17:11:05.174Z,6.65
2023-04-19T17:13:37.748Z,5.38
2023-04-19T17:16:09.437Z,7.50
2023-04-19T17:18:41.332Z,6.30
2023-04-19T17:21:16.009Z,5.28
2023-04-19T17:26:19.439Z,6.53
2023-04-19T17:28:51.232Z,4.75
2023-04-19T17:31:23.109Z,5.57
2023-04-19T17:33:57.932Z,5.85
2023-04-19T17:36:32.667Z,6.88
2023-04-19T17:39:06.584Z,5.82
2023-04-19T17:41:41.558Z,4.82
2023-04-19T17:44:13.387Z,4.40
2023-04-19T17:46:45.109Z,4.10
2023-04-19T17:49:19.128Z,4.30
2023-04-19T17:51:51.160Z,4.47
2023-04-19T17:54:23.025Z,4.97
2023-04-19T17:56:54.808Z,4.05
2023-04-19T17:59:26.554Z,6.85
2023-04-19T18:01:58.380Z,4.00
2023-04-19T18:04:31.123Z,5.70
2023-04-19T18:07:02.879Z,7.82
2023-04-19T18:09:34.908Z,4.30
2023-04-19T18:12:07.345Z,6.78
2023-04-19T18:14:39.010Z,5.70
2023-04-19T18:17:10.761Z,4.57
2023-04-19T18:19:42.410Z,4.43
2023-04-19T18:22:16.981Z,6.07
2023-04-19T18:24:51.166Z,5.60
2023-04-19T18:27:22.902Z,5.93
2023-04-19T18:29:55.720Z,6.45
2023-04-19T18:32:28.719Z,5.40
2023-04-19T18:35:00.503Z,5.90
2023-04-19T18:37:34.618Z,5.00
2023-04-19T18:40:07.328Z,3.85
2023-04-19T18:42:39.520Z,4.63
2023-04-19T18:45:11.534Z,4.88
2023-04-19T18:47:43.309Z,5.68
2023-04-19T18:50:19.195Z,5.78
2023-04-19T18:52:51.088Z,5.85
2023-04-19T18:55:22.899Z,5.30
2023-04-19T18:57:54.938Z,6.25
2023-04-19T19:00:30.799Z,4.78
2023-04-19T19:03:03.832Z,8.30
2023-04-19T19:05:35.987Z,5.25
2023-04-19T19:08:08.013Z,6.13
2023-04-19T19:11:07.178Z,7.03
2023-04-19T19:13:31.688Z,6.90
2023-04-19T19:16:05.521Z,6.50
2023-04-19T19:18:37.323Z,7.07
2023-04-19T19:21:09.442Z,7.72
2023-04-19T19:23:42.776Z,6.07
2023-04-19T19:26:14.931Z,6.18
2023-04-19T19:28:47.371Z,6.70
2023-04-19T19:31:21.445Z,7.43
2023-04-19T19:34:13.425Z,9.10
2023-04-19T19:36:45.631Z,8.15
2023-04-19T19:39:17.635Z,6.40
2023-04-19T19:42:05.153Z,7.55
2023-04-19T19:44:37.963Z,7.07
2023-04-19T19:47:10.951Z,5.82
2023-04-19T19:52:18.223Z,6.75
2023-04-19T19:54:50.009Z,6.35
2023-04-19T19:58:15.527Z,6.85
2023-04-19T20:02:56.703Z,8.13
2023-04-19T20:05:28.930Z,7.95
2023-04-19T20:08:10.085Z,7.88
2023-04-19T20:10:42.944Z,8.18
2023-04-19T20:13:14.788Z,7.57
2023-04-19T20:15:47.392Z,6.68
2023-04-19T20:18:19.209Z,7.20
2023-04-19T20:20:51.850Z,7.53
2023-04-19T20:23:23.776Z,7.28
2023-04-19T20:25:55.574Z,10.30
2023-04-19T20:28:27.468Z,7.57
2023-04-19T20:30:59.146Z,9.90
2023-04-19T20:33:30.941Z,7.97
2023-04-19T20:36:03.704Z,9.07
2023-04-19T20:38:35.421Z,6.78
2023-04-19T20:41:07.508Z,7.00
2023-04-19T20:43:39.328Z,7.43
2023-04-19T20:46:11.555Z,7.45
2023-04-19T20:48:43.416Z,8.40
2023-04-19T20:51:15.333Z,8.73
2023-04-19T20:53:47.000Z,7.95
2023-04-19T20:56:18.704Z,7.85
2023-04-19T20:58:50.628Z,8.10
2023-04-19T21:01:24.309Z,6.85
2023-04-19T21:03:56.367Z,7.85
2023-04-19T21:06:28.245Z,8.15
2023-04-19T21:09:00.202Z,7.60
2023-04-19T21:11:31.892Z,6.55
2023-04-19T21:14:03.649Z,6.60
2023-04-19T21:16:36.736Z,8.32
2023-04-19T21:19:08.488Z,8.80
2023-04-19T21:21:40.430Z,8.57
2023-04-19T21:24:12.245Z,7.35
2023-04-19T21:26:44.064Z,7.40
2023-04-19T21:29:16.077Z,7.32
2023-04-19T21:31:48.047Z,8.13
2023-04-19T21:34:19.852Z,9.55
2023-04-19T21:36:52.839Z,8.55
2023-04-19T21:39:24.775Z,8.50
2023-04-19T21:41:57.527Z,8.80
2023-04-19T21:44:29.238Z,8.93
2023-04-19T21:47:01.188Z,7.72
2023-04-19T21:49:33.561Z,7.28
2023-04-19T21:52:06.519Z,7.72
2023-04-19T21:54:38.396Z,7.55
2023-04-19T21:57:11.117Z,9.23
2023-04-19T21:59:42.855Z,8.93
2023-04-19T22:02:14.600Z,7.28
2023-04-19T22:04:46.419Z,7.05
2023-04-19T22:07:18.869Z,8.02
2023-04-19T22:09:50.663Z,7.97
2023-04-19T22:12:23.397Z,8.07
2023-04-19T22:14:55.319Z,9.57
2023-04-19T22:17:27.808Z,9.52
2023-04-19T22:19:59.971Z,8.80
2023-04-19T22:22:31.614Z,7.20
2023-04-19T22:25:03.452Z,9.65
2023-04-19T22:27:35.227Z,8.07
2023-04-19T22:30:07.723Z,7.05
2023-04-19T22:32:39.354Z,9.02
2023-04-19T22:35:11.190Z,7.00
2023-04-19T22:37:43.057Z,8.07
2023-04-19T22:40:14.812Z,9.00
2023-04-19T22:42:46.520Z,8.55
2023-04-19T22:45:18.407Z,7.25
2023-04-19T22:47:52.914Z,8.90
2023-04-19T22:50:24.768Z,7.25
2023-04-19T22:52:56.452Z,7.53
2023-04-19T22:55:28.133Z,9.75
2023-04-19T22:57:59.949Z,9.88
2023-04-19T23:00:32.026Z,6.68
2023-04-19T23:03:04.194Z,8.55
2023-04-19T23:05:36.248Z,8.90
2023-04-19T23:08:09.307Z,7.28
2023-04-19T23:10:42.513Z,7.05
2023-04-19T23:13:15.822Z,7.10
2023-04-19T23:15:50.415Z,8.55
2023-04-19T23:18:22.383Z,7.47
2023-04-19T23:20:57.427Z,6.70
2023-04-19T23:23:29.108Z,6.72
2023-04-19T23:26:00.854Z,8.90
2023-04-19T23:28:32.585Z,6.22
2023-04-19T23:31:04.515Z,6.70
2023-04-19T23:33:36.373Z,5.70
2023-04-19T23:36:08.349Z,7.00
2023-04-19T23:38:40.165Z,6.95
2023-04-19T23:41:14.789Z,7.22
2023-04-19T23:43:46.519Z,6.40
2023-04-19T23:46:18.223Z,7.93
2023-04-19T23:48:49.901Z,8.35
2023-04-19T23:51:21.593Z,7.13
2023-04-19T23:53:53.376Z,7.25
2023-04-19T23:56:25.072Z,6.32
2023-04-19T23:58:57.512Z,6.50
